createdAt,value
2023-05-14T00:01:57.378Z,38.13
2023-05-14T00:06:11.146Z,37.53
2023-05-14T00:10:23.730Z,36.00
2023-05-14T00:14:36.291Z,36.28
2023-05-14T00:18:48.726Z,36.75
2023-05-14T00:23:01.407Z,36.88
2023-05-14T00:27:14.305Z,34.40
2023-05-14T00:31:26.739Z,36.78
2023-05-14T00:35:39.317Z,31.52
2023-05-14T00:39:51.636Z,30.95
2023-05-14T00:44:04.159Z,33.05
2023-05-14T00:48:16.650Z,29.60
2023-05-14T00:52:29.255Z,31.15
2023-05-14T00:56:42.459Z,31.88
2023-05-14T01:00:54.953Z,31.70
2023-05-14T01:05:08.841Z,29.55
2023-05-14T01:09:44.111Z,30.30
2023-05-14T01:14:18.997Z,27.90
2023-05-14T01:18:33.401Z,26.25
2023-05-14T01:22:46.077Z,28.45
2023-05-14T01:27:07.368Z,30.60
2023-05-14T01:31:28.112Z,30.55
2023-05-14T01:35:41.756Z,29.67
2023-05-14T01:39:56.362Z,30.38
2023-05-14T01:44:10.183Z,30.17
2023-05-14T01:48:23.245Z,33.13
2023-05-14T01:52:36.765Z,37.17
2023-05-14T01:56:49.229Z,40.67
2023-05-14T02:01:02.211Z,41.08
2023-05-14T02:05:14.850Z,38.65
2023-05-14T02:09:27.259Z,34.58
2023-05-14T02:13:39.748Z,39.85
2023-05-14T02:17:52.227Z,47.90
2023-05-14T02:22:04.794Z,51.35
2023-05-14T02:26:17.630Z,51.53
2023-05-14T02:30:31.592Z,48.00
2023-05-14T02:34:44.032Z,35.65
2023-05-14T02:38:56.542Z,30.02
2023-05-14T02:43:08.997Z,30.10
2023-05-14T02:47:21.724Z,31.35
2023-05-14T02:51:35.645Z,31.83
2023-05-14T02:55:48.026Z,30.63
2023-05-14T03:00:00.423Z,29.17
2023-05-14T03:04:13.287Z,30.25
2023-05-14T03:08:26.117Z,28.20
2023-05-14T03:12:38.449Z,28.83
2023-05-14T03:16:51.008Z,29.27
2023-05-14T03:21:04.282Z,27.88
2023-05-14T03:25:16.744Z,28.27
2023-05-14T03:29:29.162Z,30.33
2023-05-14T03:33:41.761Z,30.80
2023-05-14T03:37:54.369Z,32.13
2023-05-14T03:42:06.991Z,31.17
2023-05-14T03:46:19.489Z,32.38
2023-05-14T03:50:32.269Z,31.15
2023-05-14T03:54:44.853Z,31.05
2023-05-14T03:58:57.385Z,30.58
2023-05-14T04:03:10.218Z,29.05
2023-05-14T04:07:22.868Z,28.38
2023-05-14T04:11:35.318Z,30.90
2023-05-14T04:15:47.758Z,28.60
2023-05-14T04:20:00.249Z,28.85
2023-05-14T04:24:12.701Z,29.55
2023-05-14T04:28:25.260Z,29.27
2023-05-14T04:32:38.291Z,25.83
2023-05-14T04:36:51.586Z,26.67
2023-05-14T04:41:04.149Z,25.65
2023-05-14T04:45:17.086Z,26.42
2023-05-14T04:49:29.959Z,26.73
2023-05-14T04:53:42.447Z,26.95
2023-05-14T04:57:55.050Z,27.30
2023-05-14T05:02:07.459Z,29.10
2023-05-14T05:06:19.852Z,32.38
2023-05-14T05:10:32.213Z,34.30
2023-05-14T05:14:44.519Z,33.65
2023-05-14T05:18:57.062Z,33.10
2023-05-14T05:23:09.510Z,32.67
2023-05-14T05:27:22.333Z,31.33
2023-05-14T05:31:34.941Z,31.17
2023-05-14T05:35:48.526Z,33.13
2023-05-14T05:40:01.051Z,34.38
2023-05-14T05:44:13.482Z,31.45
2023-05-14T05:48:25.970Z,25.33
2023-05-14T05:52:39.239Z,25.00
2023-05-14T05:56:52.260Z,24.13
2023-05-14T06:01:04.674Z,21.13
2023-05-14T06:05:17.253Z,23.33
2023-05-14T06:09:30.956Z,21.00
2023-05-14T06:13:43.464Z,22.48
2023-05-14T06:17:55.972Z,20.65
2023-05-14T06:22:08.377Z,19.70
2023-05-14T06:26:21.332Z,19.15
2023-05-14T06:30:33.756Z,18.38
2023-05-14T06:34:46.183Z,19.20
2023-05-14T06:38:58.556Z,19.17
2023-05-14T06:43:10.946Z,19.50
2023-05-14T06:47:23.494Z,19.08
2023-05-14T06:51:36.062Z,16.85
2023-05-14T06:55:49.091Z,15.95
2023-05-14T07:00:03.243Z,16.10
2023-05-14T07:04:16.335Z,15.82
2023-05-14T07:08:28.827Z,15.25
2023-05-14T07:12:41.341Z,13.38
2023-05-14T07:16:53.962Z,10.68
2023-05-14T07:21:06.849Z,10.98
2023-05-14T07:25:19.298Z,9.20
2023-05-14T07:29:31.741Z,7.45
2023-05-14T07:33:44.202Z,7.60
2023-05-14T07:37:56.702Z,7.53
2023-05-14T07:42:09.481Z,8.40
2023-05-14T07:46:21.959Z,7.20
2023-05-14T07:50:34.546Z,10.63
2023-05-14T07:54:48.028Z,13.05
2023-05-14T07:59:01.868Z,13.63
2023-05-14T08:03:14.457Z,13.45
2023-05-14T08:07:28.781Z,12.73
2023-05-14T08:11:41.187Z,11.77
2023-05-14T08:15:53.628Z,12.20
2023-05-14T08:20:07.744Z,11.52
2023-05-14T08:24:20.177Z,11.02
2023-05-14T08:28:32.775Z,10.52
2023-05-14T08:32:45.241Z,8.05
2023-05-14T08:36:57.817Z,6.50
2023-05-14T08:41:12.020Z,5.55
2023-05-14T08:45:34.208Z,5.97
2023-05-14T08:50:07.692Z,6.45
2023-05-14T08:54:22.758Z,6.30
2023-05-14T08:58:35.123Z,6.13
2023-05-14T09:02:49.148Z,6.68
2023-05-14T09:07:02.972Z,6.05
2023-05-14T09:11:15.280Z,6.18
2023-05-14T09:15:29.858Z,5.22
2023-05-14T09:19:44.195Z,6.00
2023-05-14T09:23:57.926Z,5.72
2023-05-14T09:28:10.413Z,5.55
2023-05-14T09:32:22.832Z,5.10
2023-05-14T09:36:35.614Z,7.13
2023-05-14T09:40:49.487Z,5.38
2023-05-14T09:45:02.092Z,4.88
2023-05-14T09:49:15.058Z,5.85
2023-05-14T09:53:27.671Z,6.25
2023-05-14T09:57:40.246Z,7.93
2023-05-14T10:01:53.298Z,7.72
2023-05-14T10:06:07.072Z,7.50
2023-05-14T10:10:21.297Z,7.00
2023-05-14T10:14:41.568Z,6.40
2023-05-14T10:18:59.511Z,5.35
2023-05-14T10:23:12.576Z,6.53
2023-05-14T10:27:25.994Z,5.68
2023-05-14T10:31:57.190Z,6.53
2023-05-14T10:36:10.793Z,4.35
2023-05-14T10:40:24.978Z,6.03
2023-05-14T10:44:47.599Z,5.25
2023-05-14T10:49:00.117Z,4.40
2023-05-14T10:53:14.036Z,4.32
2023-05-14T10:57:28.904Z,4.07
2023-05-14T11:01:41.648Z,4.70
2023-05-14T11:05:55.445Z,4.05
2023-05-14T11:10:10.137Z,4.32
2023-05-14T11:14:23.403Z,4.40
2023-05-14T11:18:38.962Z,4.68
2023-05-14T11:22:54.118Z,3.70
2023-05-14T11:27:09.639Z,4.40
2023-05-14T11:31:23.643Z,5.13
2023-05-14T11:35:37.226Z,5.50
2023-05-14T11:39:51.375Z,5.90
2023-05-14T11:44:04.083Z,4.55
2023-05-14T11:48:16.556Z,4.40
2023-05-14T11:52:29.145Z,4.78
2023-05-14T11:56:41.539Z,5.03
2023-05-14T12:00:55.884Z,5.05
2023-05-14T12:05:09.387Z,6.30
2023-05-14T12:09:22.928Z,4.80
2023-05-14T12:13:37.451Z,4.68
2023-05-14T12:17:52.033Z,7.47
2023-05-14T12:22:04.690Z,6.07
2023-05-14T12:26:17.219Z,4.50
2023-05-14T12:30:38.441Z,6.05
2023-05-14T12:34:51.110Z,6.93
2023-05-14T12:39:04.304Z,5.30
2023-05-14T12:43:16.671Z,8.68
2023-05-14T12:47:29.241Z,6.47
2023-05-14T12:51:41.929Z,5.80
2023-05-14T12:55:55.904Z,5.78
2023-05-14T13:00:14.079Z,4.97
2023-05-14T13:04:27.063Z,4.65
2023-05-14T13:08:41.017Z,4.60
2023-05-14T13:12:56.632Z,4.47
2023-05-14T13:17:09.080Z,5.35
2023-05-14T13:21:21.926Z,4.07
2023-05-14T13:25:34.841Z,4.72
2023-05-14T13:29:47.321Z,5.68
2023-05-14T13:33:59.975Z,6.05
2023-05-14T13:38:12.349Z,4.72
2023-05-14T13:42:24.779Z,4.93
2023-05-14T13:46:37.281Z,4.65
2023-05-14T13:50:50.058Z,4.15
2023-05-14T13:55:02.452Z,4.30
2023-05-14T13:59:15.587Z,4.72
2023-05-14T14:03:27.989Z,3.47
2023-05-14T14:07:41.049Z,3.90
2023-05-14T14:11:53.719Z,3.30
2023-05-14T14:16:07.118Z,3.58
2023-05-14T14:20:19.504Z,3.90
2023-05-14T14:24:31.921Z,3.60
2023-05-14T14:28:44.307Z,4.05
2023-05-14T14:32:57.145Z,3.88
2023-05-14T14:37:09.665Z,3.90
2023-05-14T14:41:22.684Z,3.90
2023-05-14T14:45:35.283Z,3.78
2023-05-14T14:49:47.797Z,3.22
2023-05-14T14:54:00.370Z,3.72
2023-05-14T14:58:12.878Z,3.63
2023-05-14T15:02:25.918Z,3.70
2023-05-14T15:06:38.418Z,3.63
2023-05-14T15:10:50.901Z,4.40
2023-05-14T15:15:03.370Z,3.83
2023-05-14T15:19:15.841Z,4.15
2023-05-14T15:23:28.343Z,3.88
2023-05-14T15:27:40.904Z,4.63
2023-05-14T15:31:53.421Z,4.28
2023-05-14T15:36:08.524Z,4.45
2023-05-14T15:40:21.085Z,4.78
2023-05-14T15:44:33.568Z,4.55
2023-05-14T15:48:46.141Z,4.70
2023-05-14T15:52:58.550Z,5.20
2023-05-14T15:57:11.088Z,5.40
2023-05-14T16:01:23.486Z,4.60
2023-05-14T16:05:36.846Z,6.70
2023-05-14T16:09:49.204Z,4.38
2023-05-14T16:14:01.602Z,5.25
2023-05-14T16:18:14.028Z,5.20
2023-05-14T16:22:27.043Z,4.75
2023-05-14T16:26:40.273Z,5.05
2023-05-14T16:30:52.710Z,6.03
2023-05-14T16:35:05.494Z,5.70
2023-05-14T16:39:17.855Z,5.78
2023-05-14T16:43:30.357Z,4.55
2023-05-14T16:47:42.780Z,4.72
2023-05-14T16:51:55.263Z,5.82
2023-05-14T16:56:07.878Z,4.78
2023-05-14T17:00:20.283Z,4.63
2023-05-14T17:04:33.652Z,5.47
2023-05-14T17:08:46.207Z,5.75
2023-05-14T17:12:58.757Z,6.03
2023-05-14T17:17:11.287Z,5.38
2023-05-14T17:21:23.865Z,5.45
2023-05-14T17:25:36.302Z,5.53
2023-05-14T17:29:51.255Z,4.88
2023-05-14T17:34:03.736Z,5.80
2023-05-14T17:38:16.042Z,4.57
2023-05-14T17:42:28.620Z,5.22
2023-05-14T17:46:42.017Z,7.82
2023-05-14T17:50:54.536Z,7.82
2023-05-14T17:55:07.277Z,7.10
2023-05-14T17:59:19.837Z,6.43
2023-05-14T18:03:32.446Z,6.43
2023-05-14T18:07:44.936Z,6.22
2023-05-14T18:11:57.391Z,7.15
2023-05-14T18:16:09.867Z,6.47
2023-05-14T18:20:22.233Z,7.18
2023-05-14T18:24:34.583Z,6.93
2023-05-14T18:28:47.017Z,7.10
2023-05-14T18:33:00.154Z,7.20
2023-05-14T18:37:12.851Z,8.40
2023-05-14T18:41:25.332Z,8.88
2023-05-14T18:45:37.897Z,9.93
2023-05-14T18:49:55.152Z,9.70
2023-05-14T18:54:07.563Z,9.43
2023-05-14T18:58:19.998Z,9.82
2023-05-14T19:02:32.539Z,9.70
2023-05-14T19:06:45.127Z,9.50
2023-05-14T19:10:57.670Z,9.32
2023-05-14T19:15:10.973Z,9.90
2023-05-14T19:19:23.482Z,10.13
2023-05-14T19:23:36.013Z,10.02
2023-05-14T19:27:51.348Z,9.98
2023-05-14T19:32:04.917Z,10.27
2023-05-14T19:36:17.382Z,9.60
2023-05-14T19:40:29.892Z,9.00
2023-05-14T19:44:42.209Z,10.43
2023-05-14T19:48:57.578Z,10.18
2023-05-14T19:53:10.107Z,11.68
2023-05-14T19:57:22.742Z,17.70
2023-05-14T20:01:35.331Z,15.63
2023-05-14T20:05:49.221Z,15.65
2023-05-14T20:10:01.766Z,14.55
2023-05-14T20:14:14.592Z,11.52
2023-05-14T20:18:28.539Z,10.73
2023-05-14T20:22:42.880Z,8.75
2023-05-14T20:26:55.525Z,8.63
2023-05-14T20:31:08.290Z,9.02
2023-05-14T20:35:20.872Z,8.23
2023-05-14T20:39:33.401Z,9.40
2023-05-14T20:43:46.094Z,9.15
2023-05-14T20:47:59.835Z,9.18
2023-05-14T20:52:13.678Z,8.20
2023-05-14T20:56:26.920Z,7.65
2023-05-14T21:00:39.505Z,6.95
2023-05-14T21:04:52.529Z,8.10
2023-05-14T21:09:06.238Z,7.80
2023-05-14T21:13:18.854Z,6.78
2023-05-14T21:17:31.476Z,6.80
2023-05-14T21:21:44.075Z,6.30
2023-05-14T21:25:56.623Z,6.95
2023-05-14T21:30:09.672Z,6.72
2023-05-14T21:34:22.162Z,5.55
2023-05-14T21:38:35.332Z,5.45
2023-05-14T21:42:47.800Z,4.93
2023-05-14T21:47:00.177Z,5.22
2023-05-14T21:51:12.695Z,4.85
2023-05-14T21:55:26.011Z,4.53
2023-05-14T21:59:38.509Z,5.15
2023-05-14T22:03:50.969Z,5.20
2023-05-14T22:08:03.398Z,5.18
2023-05-14T22:12:16.115Z,4.88
2023-05-14T22:16:28.462Z,5.50
2023-05-14T22:20:40.840Z,5.43
2023-05-14T22:24:53.217Z,6.53
2023-05-14T22:29:05.607Z,5.20
2023-05-14T22:33:19.796Z,5.32
2023-05-14T22:37:32.258Z,5.25
2023-05-14T22:41:44.655Z,5.38
2023-05-14T22:45:57.063Z,5.07
2023-05-14T22:50:11.865Z,4.95
2023-05-14T22:54:24.246Z,5.55
2023-05-14T22:58:37.854Z,6.30
2023-05-14T23:02:50.342Z,6.10
2023-05-14T23:07:03.047Z,6.15
2023-05-14T23:11:15.910Z,5.72
2023-05-14T23:15:28.377Z,5.45
2023-05-14T23:19:42.100Z,5.78
2023-05-14T23:23:54.553Z,5.75
2023-05-14T23:28:07.406Z,6.18
2023-05-14T23:32:20.171Z,6.45
2023-05-14T23:36:36.308Z,6.47
2023-05-14T23:40:48.714Z,7.10
2023-05-14T23:45:03.626Z,8.77
2023-05-14T23:49:16.164Z,9.55
2023-05-14T23:53:28.550Z,10.55
2023-05-14T23:57:41.512Z,11.82
